createdAt,value
2019-03-30T00:01:23.862Z,17.10
2019-03-30T00:03:53.180Z,17.13
2019-03-30T00:06:23.384Z,20.03
2019-03-30T00:08:54.706Z,14.93
2019-03-30T00:11:23.411Z,18.73
2019-03-30T00:13:52.223Z,17.57
2019-03-30T00:16:20.856Z,15.80
2019-03-30T00:18:49.586Z,17.03
2019-03-30T00:21:18.272Z,19.93
2019-03-30T00:23:50.655Z,19.53
2019-03-30T00:26:26.711Z,16.63
2019-03-30T00:28:55.387Z,16.40
2019-03-30T00:31:27.419Z,17.87
2019-03-30T00:33:56.137Z,21.60
2019-03-30T00:36:24.877Z,16.43
2019-03-30T00:38:53.519Z,17.23
2019-03-30T00:41:22.143Z,16.13
2019-03-30T00:43:52.343Z,17.07
2019-03-30T00:46:23.667Z,19.93
2019-03-30T00:48:52.321Z,16.67
2019-03-30T00:51:26.804Z,19.30
2019-03-30T00:53:55.374Z,18.27
2019-03-30T00:56:24.072Z,20.33
2019-03-30T00:58:52.741Z,21.07
2019-03-30T01:01:21.449Z,18.73
2019-03-30T01:03:50.244Z,18.20
2019-03-30T01:06:19.290Z,16.10
2019-03-30T01:08:48.295Z,20.50
2019-03-30T01:11:18.404Z,23.13
2019-03-30T01:13:47.218Z,20.67
2019-03-30T01:16:16.051Z,18.40
2019-03-30T01:18:48.202Z,18.43
2019-03-30T01:21:22.978Z,20.37
2019-03-30T01:23:51.704Z,17.63
2019-03-30T01:26:20.419Z,18.57
2019-03-30T01:28:49.090Z,20.77
2019-03-30T01:31:17.730Z,19.73
2019-03-30T01:33:46.622Z,20.00
2019-03-30T01:36:15.458Z,18.33
2019-03-30T01:38:44.021Z,17.87
2019-03-30T01:41:12.736Z,22.50
2019-03-30T01:43:41.480Z,23.00
2019-03-30T01:46:10.115Z,18.83
2019-03-30T01:48:38.761Z,19.77
2019-03-30T01:51:07.433Z,20.00
2019-03-30T01:53:36.146Z,20.73
2019-03-30T01:56:05.446Z,20.80
2019-03-30T01:58:34.176Z,24.07
2019-03-30T02:01:04.825Z,22.50
2019-03-30T02:03:33.242Z,21.37
2019-03-30T02:06:01.981Z,21.93
2019-03-30T02:08:31.071Z,18.23
2019-03-30T02:10:59.725Z,23.17
2019-03-30T02:13:28.477Z,21.13
2019-03-30T02:15:57.203Z,19.63
2019-03-30T02:18:25.911Z,19.60
2019-03-30T02:20:54.577Z,21.33
2019-03-30T02:23:23.251Z,20.83
2019-03-30T02:25:51.952Z,17.67
2019-03-30T02:28:21.769Z,19.47
2019-03-30T02:30:51.920Z,22.43
2019-03-30T02:33:20.631Z,20.23
2019-03-30T02:35:49.333Z,22.00
2019-03-30T02:38:18.048Z,23.43
2019-03-30T02:40:46.737Z,25.67
2019-03-30T02:43:15.356Z,22.07
2019-03-30T02:45:44.058Z,20.30
2019-03-30T02:48:12.691Z,22.37
2019-03-30T02:50:50.020Z,18.70
2019-03-30T02:53:11.666Z,22.43
2019-03-30T02:55:40.316Z,22.03
2019-03-30T02:58:09.059Z,25.73
2019-03-30T03:00:37.872Z,21.30
2019-03-30T03:03:06.573Z,24.43
2019-03-30T03:05:35.333Z,23.40
2019-03-30T03:08:03.990Z,24.37
2019-03-30T03:10:32.891Z,25.50
2019-03-30T03:13:01.637Z,26.07
2019-03-30T03:15:30.389Z,31.30
2019-03-30T03:17:59.543Z,32.27
2019-03-30T03:20:28.218Z,28.73
2019-03-30T03:22:56.867Z,30.17
2019-03-30T03:25:25.693Z,34.23
2019-03-30T03:28:13.885Z,29.43
2019-03-30T03:30:42.529Z,29.00
2019-03-30T03:33:11.179Z,28.80
2019-03-30T03:35:39.922Z,26.07
2019-03-30T03:38:08.628Z,28.20
2019-03-30T03:40:37.445Z,23.67
2019-03-30T03:43:06.695Z,21.77
2019-03-30T03:45:35.572Z,21.40
2019-03-30T03:48:04.296Z,23.17
2019-03-30T03:50:38.167Z,22.87
2019-03-30T03:53:07.275Z,24.93
2019-03-30T03:55:37.465Z,21.37
2019-03-30T03:58:07.711Z,26.97
2019-03-30T04:00:36.720Z,23.43
2019-03-30T04:03:05.933Z,23.60
2019-03-30T04:05:39.012Z,25.13
2019-03-30T04:08:10.513Z,23.00
2019-03-30T04:10:39.795Z,21.70
2019-03-30T04:13:10.810Z,24.57
2019-03-30T04:15:39.835Z,21.17
2019-03-30T04:18:08.739Z,26.27
2019-03-30T04:20:44.615Z,21.43
2019-03-30T04:23:13.330Z,20.37
2019-03-30T04:25:44.743Z,22.60
2019-03-30T04:28:13.369Z,31.07
2019-03-30T04:30:42.090Z,32.90
2019-03-30T04:33:10.762Z,28.13
2019-03-30T04:35:39.692Z,25.23
2019-03-30T04:38:08.404Z,25.93
2019-03-30T04:40:37.139Z,28.80
2019-03-30T04:43:05.838Z,26.63
2019-03-30T04:45:34.483Z,25.57
2019-03-30T04:48:03.230Z,25.17
2019-03-30T04:50:31.867Z,25.70
2019-03-30T04:53:00.506Z,29.43
2019-03-30T04:55:29.197Z,30.63
2019-03-30T04:57:58.087Z,29.03
2019-03-30T05:00:27.099Z,32.47
2019-03-30T05:02:55.763Z,35.53
2019-03-30T05:05:24.675Z,35.60
2019-03-30T05:07:53.661Z,32.20
2019-03-30T05:10:22.345Z,31.33
2019-03-30T05:12:52.737Z,33.67
2019-03-30T05:15:21.452Z,28.67
2019-03-30T05:17:53.177Z,24.40
2019-03-30T05:20:22.896Z,27.60
2019-03-30T05:22:53.091Z,33.47
2019-03-30T05:25:21.861Z,31.60
2019-03-30T05:27:50.493Z,37.70
2019-03-30T05:30:19.217Z,27.80
2019-03-30T05:32:47.960Z,30.67
2019-03-30T05:35:16.707Z,33.40
2019-03-30T05:37:46.989Z,38.90
2019-03-30T05:40:15.729Z,32.30
2019-03-30T05:42:44.369Z,37.00
2019-03-30T05:45:13.681Z,32.97
2019-03-30T05:47:42.281Z,31.50
2019-03-30T05:50:11.263Z,33.27
2019-03-30T05:52:39.991Z,33.50
2019-03-30T05:55:09.113Z,30.97
2019-03-30T05:57:40.490Z,29.77
2019-03-30T06:00:16.353Z,33.20
2019-03-30T06:02:45.059Z,31.37
2019-03-30T06:05:13.760Z,26.90
2019-03-30T06:07:42.428Z,29.93
2019-03-30T06:10:11.439Z,26.97
2019-03-30T06:12:40.154Z,26.60
2019-03-30T06:15:08.994Z,23.60
2019-03-30T06:17:40.161Z,27.10
2019-03-30T06:20:32.757Z,28.23
2019-03-30T06:23:01.398Z,28.73
2019-03-30T06:25:30.028Z,33.87
2019-03-30T06:27:58.693Z,26.27
2019-03-30T06:30:28.398Z,26.93
2019-03-30T06:32:57.105Z,30.97
2019-03-30T06:35:28.991Z,30.57
2019-03-30T06:37:57.710Z,32.80
2019-03-30T06:40:26.434Z,32.87
2019-03-30T06:42:55.418Z,29.50
2019-03-30T06:45:24.052Z,32.17
2019-03-30T06:47:52.697Z,28.77
2019-03-30T06:50:21.483Z,29.50
2019-03-30T06:52:57.311Z,27.43
2019-03-30T06:55:20.668Z,28.40
2019-03-30T06:57:49.290Z,30.17
2019-03-30T07:00:19.658Z,28.53
2019-03-30T07:02:48.372Z,25.03
2019-03-30T07:05:18.584Z,25.60
2019-03-30T07:07:47.686Z,27.23
2019-03-30T07:10:16.394Z,26.67
2019-03-30T07:12:46.994Z,28.50
2019-03-30T07:15:16.520Z,27.13
2019-03-30T07:17:46.909Z,28.17
2019-03-30T07:20:29.614Z,24.00
2019-03-30T07:23:11.255Z,23.90
2019-03-30T07:25:34.793Z,25.33
2019-03-30T07:28:03.507Z,20.73
2019-03-30T07:30:32.162Z,21.80
2019-03-30T07:33:03.874Z,20.27
2019-03-30T07:35:32.227Z,18.73
2019-03-30T07:38:01.082Z,16.73
2019-03-30T07:40:29.723Z,17.37
2019-03-30T07:42:58.687Z,22.53
2019-03-30T07:45:27.410Z,22.03
2019-03-30T07:47:56.080Z,20.07
2019-03-30T07:50:25.032Z,17.00
2019-03-30T07:52:53.761Z,22.83
2019-03-30T07:55:22.593Z,20.53
2019-03-30T07:58:10.619Z,19.07
2019-03-30T08:00:39.552Z,22.10
2019-03-30T08:03:08.238Z,21.20
2019-03-30T08:05:36.897Z,19.13
2019-03-30T08:08:05.661Z,20.70
2019-03-30T08:10:36.710Z,20.10
2019-03-30T08:13:07.758Z,20.60
2019-03-30T08:15:37.363Z,21.03
2019-03-30T08:18:06.498Z,21.23
2019-03-30T08:20:36.869Z,19.13
2019-03-30T08:23:05.949Z,21.07
2019-03-30T08:25:34.723Z,18.80
2019-03-30T08:28:06.347Z,22.10
2019-03-30T08:30:35.211Z,17.07
2019-03-30T08:33:03.935Z,20.53
2019-03-30T08:35:35.269Z,19.32
2019-03-30T08:38:04.427Z,16.83
2019-03-30T08:40:33.585Z,17.48
2019-03-30T08:43:02.302Z,21.03
2019-03-30T08:45:31.045Z,19.55
2019-03-30T08:47:59.831Z,20.00
2019-03-30T08:50:33.721Z,19.23
2019-03-30T08:53:02.517Z,21.87
2019-03-30T08:55:31.318Z,19.45
2019-03-30T08:58:00.037Z,22.90
2019-03-30T09:00:42.152Z,20.97
2019-03-30T09:03:22.660Z,20.40
2019-03-30T09:05:51.469Z,19.23
2019-03-30T09:08:23.680Z,25.90
2019-03-30T09:10:52.679Z,18.70
2019-03-30T09:13:21.374Z,20.20
2019-03-30T09:15:50.095Z,19.53
2019-03-30T09:18:19.311Z,18.15
2019-03-30T09:20:48.302Z,19.98
2019-03-30T09:23:17.001Z,19.85
2019-03-30T09:25:45.715Z,22.73
2019-03-30T09:28:16.587Z,19.23
2019-03-30T09:30:45.375Z,23.70
2019-03-30T09:33:14.318Z,21.00
2019-03-30T09:35:43.071Z,23.38
2019-03-30T09:38:14.658Z,19.12
2019-03-30T09:40:43.631Z,22.67
2019-03-30T09:43:15.303Z,25.20
2019-03-30T09:45:45.557Z,23.22
2019-03-30T09:48:14.340Z,22.25
2019-03-30T09:50:43.094Z,23.45
2019-03-30T09:53:11.869Z,19.75
2019-03-30T09:55:40.500Z,22.27
2019-03-30T09:58:12.265Z,23.20
2019-03-30T10:00:40.972Z,24.50
2019-03-30T10:03:09.772Z,27.67
2019-03-30T10:05:38.985Z,26.20
2019-03-30T10:08:07.646Z,23.00
2019-03-30T10:10:38.432Z,22.58
2019-03-30T10:13:08.786Z,34.73
2019-03-30T10:15:37.668Z,21.85
2019-03-30T10:18:06.400Z,20.27
2019-03-30T10:20:43.728Z,19.17
2019-03-30T10:23:13.445Z,22.45
2019-03-30T10:25:45.798Z,21.60
2019-03-30T10:28:14.547Z,18.73
2019-03-30T10:30:44.410Z,21.68
2019-03-30T10:33:13.014Z,22.48
2019-03-30T10:35:41.772Z,19.75
2019-03-30T10:38:10.483Z,21.68
2019-03-30T10:40:39.211Z,22.32
2019-03-30T10:43:07.963Z,20.80
2019-03-30T10:45:36.685Z,24.18
2019-03-30T10:48:05.576Z,18.67
2019-03-30T10:50:34.399Z,20.43
2019-03-30T10:53:05.059Z,17.30
2019-03-30T10:55:33.490Z,22.15
2019-03-30T10:58:04.922Z,21.73
2019-03-30T11:00:38.882Z,18.23
2019-03-30T11:03:08.728Z,20.23
2019-03-30T11:05:38.794Z,19.10
2019-03-30T11:08:07.690Z,22.52
2019-03-30T11:10:36.437Z,21.42
2019-03-30T11:13:06.918Z,22.48
2019-03-30T11:18:25.927Z,19.37
2019-03-30T11:20:55.684Z,16.95
2019-03-30T11:23:24.391Z,20.35
2019-03-30T11:28:30.685Z,16.15
2019-03-30T11:31:00.577Z,15.90
2019-03-30T11:33:29.384Z,16.42
2019-03-30T11:38:40.797Z,20.32
2019-03-30T11:41:11.467Z,14.33
2019-03-30T11:43:40.183Z,15.80
2019-03-30T11:46:10.767Z,17.55
2019-03-30T11:48:39.474Z,15.83
2019-03-30T11:51:13.776Z,19.17
2019-03-30T11:53:45.591Z,17.55
2019-03-30T11:56:18.785Z,17.67
2019-03-30T11:58:47.501Z,27.35
2019-03-30T12:01:16.231Z,16.50
2019-03-30T12:03:44.916Z,14.60
2019-03-30T12:06:14.459Z,15.85
2019-03-30T12:08:44.835Z,14.28
2019-03-30T12:11:16.910Z,12.55
2019-03-30T12:13:47.517Z,12.75
2019-03-30T12:16:18.829Z,9.93
2019-03-30T12:18:53.883Z,12.18
2019-03-30T12:21:22.782Z,13.25
2019-03-30T12:23:51.529Z,18.98
2019-03-30T12:26:20.101Z,12.90
2019-03-30T12:28:48.801Z,18.42
2019-03-30T12:31:19.959Z,17.23
2019-03-30T12:33:49.147Z,13.15
2019-03-30T12:36:19.653Z,10.75
2019-03-30T12:38:48.857Z,9.68
2019-03-30T12:41:17.731Z,11.88
2019-03-30T12:43:46.634Z,8.25
2019-03-30T12:46:15.329Z,11.18
2019-03-30T12:48:45.836Z,9.83
2019-03-30T12:51:14.403Z,9.60
2019-03-30T12:53:50.379Z,13.22
2019-03-30T12:56:18.961Z,13.15
2019-03-30T12:58:48.805Z,10.75
2019-03-30T13:01:20.587Z,10.60
2019-03-30T13:03:49.118Z,14.03
2019-03-30T13:06:19.318Z,11.53
2019-03-30T13:08:49.794Z,12.10
2019-03-30T13:11:18.499Z,12.58
2019-03-30T13:13:47.184Z,20.95
2019-03-30T13:16:17.765Z,13.85
2019-03-30T13:18:46.729Z,15.83
2019-03-30T13:21:15.809Z,17.57
2019-03-30T13:23:44.517Z,15.30
2019-03-30T13:26:13.149Z,13.68
2019-03-30T13:28:45.456Z,15.88
2019-03-30T13:31:14.159Z,11.43
2019-03-30T13:33:42.807Z,16.93
2019-03-30T13:36:12.137Z,14.98
2019-03-30T13:38:40.784Z,15.40
2019-03-30T13:41:09.419Z,14.05
2019-03-30T13:43:38.086Z,14.28
2019-03-30T13:46:06.915Z,14.63
2019-03-30T13:48:38.347Z,12.37
2019-03-30T13:51:08.027Z,16.77
2019-03-30T13:53:36.733Z,18.70
2019-03-30T13:56:16.591Z,15.60
2019-03-30T13:58:36.610Z,14.25
2019-03-30T14:01:05.924Z,23.18
2019-03-30T14:03:34.483Z,15.78
2019-03-30T14:06:03.086Z,12.90
2019-03-30T14:08:31.767Z,19.27
2019-03-30T14:11:00.451Z,23.98
2019-03-30T14:13:29.222Z,16.57
2019-03-30T14:15:58.014Z,14.30
2019-03-30T14:18:28.844Z,10.55
2019-03-30T14:20:57.425Z,9.28
2019-03-30T14:23:25.988Z,11.12
2019-03-30T14:25:56.954Z,10.82
2019-03-30T14:28:26.759Z,7.33
2019-03-30T14:30:57.693Z,11.28
2019-03-30T14:33:29.298Z,10.80
2019-03-30T14:36:01.246Z,10.32
2019-03-30T14:38:30.091Z,11.05
2019-03-30T14:40:58.833Z,10.58
2019-03-30T14:43:27.721Z,25.20
2019-03-30T14:45:56.423Z,13.35
2019-03-30T14:48:28.019Z,8.40
2019-03-30T14:50:56.659Z,11.43
2019-03-30T14:53:25.522Z,15.00
2019-03-30T14:55:54.286Z,9.98
2019-03-30T14:58:23.086Z,9.85
2019-03-30T15:00:51.594Z,11.48
2019-03-30T15:03:20.247Z,11.48
2019-03-30T15:05:49.668Z,8.75
2019-03-30T15:08:19.259Z,8.70
2019-03-30T15:10:48.838Z,9.55
2019-03-30T15:13:17.502Z,15.15
2019-03-30T15:15:46.437Z,9.33
2019-03-30T15:18:15.432Z,8.43
2019-03-30T15:20:45.039Z,9.13
2019-03-30T15:23:13.548Z,11.28
2019-03-30T15:25:44.672Z,11.03
2019-03-30T15:28:13.418Z,8.35
2019-03-30T15:30:42.130Z,10.35
2019-03-30T15:33:12.236Z,9.98
2019-03-30T15:35:42.444Z,11.53
2019-03-30T15:38:11.273Z,10.10
2019-03-30T15:40:45.854Z,13.32
2019-03-30T15:43:14.412Z,10.03
2019-03-30T15:45:43.191Z,9.50
2019-03-30T15:48:11.904Z,15.35
2019-03-30T15:50:40.666Z,11.78
2019-03-30T15:53:09.292Z,12.30
2019-03-30T15:55:43.988Z,13.32
2019-03-30T15:58:10.301Z,11.65
2019-03-30T16:00:38.935Z,11.15
2019-03-30T16:03:10.368Z,12.10
2019-03-30T16:05:42.301Z,10.72
2019-03-30T16:08:10.940Z,15.55
2019-03-30T16:10:39.723Z,36.08
2019-03-30T16:13:08.758Z,20.95
2019-03-30T16:15:37.387Z,15.43
2019-03-30T16:18:08.818Z,21.23
2019-03-30T16:20:40.794Z,25.17
2019-03-30T16:23:12.179Z,20.62
2019-03-30T16:25:40.893Z,14.83
2019-03-30T16:28:15.359Z,15.05
2019-03-30T16:30:51.385Z,36.58
2019-03-30T16:33:21.994Z,20.77
2019-03-30T16:35:53.619Z,21.45
2019-03-30T16:38:22.314Z,20.00
2019-03-30T16:40:53.882Z,18.07
2019-03-30T16:43:22.730Z,18.55
2019-03-30T16:45:51.373Z,15.53
2019-03-30T16:48:20.307Z,15.10
2019-03-30T16:50:52.513Z,14.28
2019-03-30T16:53:21.163Z,12.45
2019-03-30T16:55:50.043Z,16.00
2019-03-30T16:58:23.028Z,14.78
2019-03-30T17:00:56.510Z,11.12
2019-03-30T17:03:19.783Z,13.40
2019-03-30T17:05:49.186Z,17.17
2019-03-30T17:08:20.695Z,13.83
2019-03-30T17:10:49.372Z,18.48
2019-03-30T17:13:19.207Z,14.98
2019-03-30T17:15:52.731Z,14.73
2019-03-30T17:18:22.879Z,15.88
2019-03-30T17:20:53.311Z,19.52
2019-03-30T17:23:22.275Z,18.00
2019-03-30T17:25:55.342Z,25.52
2019-03-30T17:28:25.530Z,17.85
2019-03-30T17:30:54.255Z,15.30
2019-03-30T17:33:22.933Z,20.52
2019-03-30T17:35:51.576Z,18.77
2019-03-30T17:38:20.493Z,22.82
2019-03-30T17:40:49.286Z,18.17
2019-03-30T17:43:17.972Z,22.85
2019-03-30T17:45:46.752Z,18.92
2019-03-30T17:48:15.427Z,18.32
2019-03-30T17:50:47.212Z,15.95
2019-03-30T17:53:17.777Z,21.87
2019-03-30T17:55:46.585Z,19.60
2019-03-30T17:58:16.872Z,18.90
2019-03-30T18:00:47.006Z,17.67
2019-03-30T18:03:16.671Z,20.17
2019-03-30T18:05:48.326Z,22.60
2019-03-30T18:08:18.719Z,20.30
2019-03-30T18:10:49.706Z,19.67
2019-03-30T18:13:22.306Z,18.52
2019-03-30T18:15:50.933Z,20.43
2019-03-30T18:18:22.607Z,19.40
2019-03-30T18:20:57.388Z,18.00
2019-03-30T18:23:29.875Z,21.75
2019-03-30T18:25:58.464Z,18.90
2019-03-30T18:28:27.752Z,17.87
2019-03-30T18:30:56.569Z,21.20
2019-03-30T18:33:26.308Z,17.00
2019-03-30T18:35:55.542Z,23.12
2019-03-30T18:38:24.516Z,17.77
2019-03-30T18:40:54.958Z,20.47
2019-03-30T18:43:28.196Z,23.33
2019-03-30T18:45:56.834Z,18.07
2019-03-30T18:48:25.780Z,20.30
2019-03-30T18:50:54.455Z,20.50
2019-03-30T18:53:23.168Z,19.13
2019-03-30T18:55:54.736Z,20.07
2019-03-30T18:58:40.691Z,18.63
2019-03-30T19:00:57.440Z,20.48
2019-03-30T19:03:40.244Z,18.63
2019-03-30T19:05:58.078Z,24.10
2019-03-30T19:08:28.580Z,18.57
2019-03-30T19:10:59.606Z,20.50
2019-03-30T19:13:28.330Z,18.13
2019-03-30T19:16:01.529Z,19.47
2019-03-30T19:18:30.225Z,21.30
2019-03-30T19:21:04.109Z,18.97
2019-03-30T19:23:33.056Z,17.77
2019-03-30T19:26:02.181Z,21.57
2019-03-30T19:28:30.874Z,19.30
2019-03-30T19:31:02.692Z,19.97
2019-03-30T19:33:31.330Z,23.17
2019-03-30T19:36:00.172Z,20.60
2019-03-30T19:38:28.796Z,20.57
2019-03-30T19:41:00.868Z,21.77
2019-03-30T19:43:29.531Z,19.87
2019-03-30T19:45:59.876Z,22.70
2019-03-30T19:48:36.977Z,22.60
2019-03-30T19:51:05.233Z,23.33
2019-03-30T19:53:33.876Z,20.00
2019-03-30T19:56:02.947Z,22.93
2019-03-30T19:58:31.907Z,21.20
2019-03-30T20:01:09.224Z,23.13
2019-03-30T20:03:39.524Z,20.77
2019-03-30T20:06:09.879Z,19.50
2019-03-30T20:08:38.729Z,21.50
2019-03-30T20:11:07.445Z,21.63
2019-03-30T20:13:36.242Z,20.93
2019-03-30T20:16:09.403Z,20.40
2019-03-30T20:18:40.906Z,18.23
2019-03-30T20:21:09.551Z,22.60
2019-03-30T20:23:38.311Z,21.83
2019-03-30T20:26:17.849Z,22.13
2019-03-30T20:28:52.627Z,18.80
2019-03-30T20:31:21.347Z,20.23
2019-03-30T20:33:49.984Z,25.70
2019-03-30T20:36:20.431Z,25.13
2019-03-30T20:38:49.170Z,20.83
2019-03-30T20:41:19.647Z,21.73
2019-03-30T20:43:51.378Z,19.20
2019-03-30T20:46:21.724Z,23.77
2019-03-30T20:48:50.701Z,25.13
2019-03-30T20:51:21.410Z,22.20
2019-03-30T20:53:57.357Z,20.77
2019-03-30T20:56:26.088Z,22.53
2019-03-30T20:58:56.201Z,21.97
2019-03-30T21:01:25.900Z,24.60
2019-03-30T21:03:54.570Z,25.50
2019-03-30T21:06:23.287Z,23.60
2019-03-30T21:08:51.849Z,25.47
2019-03-30T21:11:20.698Z,22.10
2019-03-30T21:13:56.907Z,25.47
2019-03-30T21:16:25.636Z,24.90
2019-03-30T21:18:54.271Z,22.97
2019-03-30T21:21:26.135Z,24.47
2019-03-30T21:23:55.453Z,23.47
2019-03-30T21:26:31.693Z,21.43
2019-03-30T21:29:00.536Z,25.23
2019-03-30T21:31:29.182Z,21.33
2019-03-30T21:33:57.891Z,22.70
2019-03-30T21:36:26.681Z,20.33
2019-03-30T21:39:00.949Z,22.93
2019-03-30T21:41:29.762Z,24.57
2019-03-30T21:44:00.121Z,23.00
2019-03-30T21:46:28.714Z,23.47
2019-03-30T21:48:57.581Z,25.00
2019-03-30T21:51:28.162Z,18.73
2019-03-30T21:53:56.734Z,24.17
2019-03-30T21:56:27.713Z,22.53
2019-03-30T21:59:02.287Z,23.30
2019-03-30T22:01:30.926Z,21.13
2019-03-30T22:04:04.810Z,24.10
2019-03-30T22:06:36.294Z,22.63
2019-03-30T22:09:09.561Z,22.97
2019-03-30T22:11:41.164Z,24.63
2019-03-30T22:14:09.883Z,20.23
2019-03-30T22:16:38.518Z,22.20
2019-03-30T22:19:07.343Z,21.60
2019-03-30T22:21:36.678Z,24.27
2019-03-30T22:24:05.621Z,21.47
2019-03-30T22:26:36.984Z,27.80
2019-03-30T22:29:05.686Z,27.97
2019-03-30T22:31:34.441Z,21.30
2019-03-30T22:34:04.641Z,26.83
2019-03-30T22:36:35.071Z,26.27
2019-03-30T22:39:05.767Z,27.63
2019-03-30T22:41:34.703Z,30.53
2019-03-30T22:44:03.717Z,25.23
2019-03-30T22:46:32.531Z,21.50
2019-03-30T22:49:04.227Z,23.47
2019-03-30T22:51:33.450Z,21.33
2019-03-30T22:54:02.920Z,22.53
2019-03-30T22:56:33.488Z,23.87
2019-03-30T22:59:02.172Z,21.80
2019-03-30T23:01:31.145Z,22.57
2019-03-30T23:04:00.582Z,23.50
2019-03-30T23:06:29.249Z,23.10
2019-03-30T23:09:00.948Z,27.07
2019-03-30T23:11:29.587Z,24.73
2019-03-30T23:13:58.254Z,22.20
2019-03-30T23:16:28.791Z,21.83
2019-03-30T23:18:59.687Z,28.37
2019-03-30T23:21:28.910Z,20.20
2019-03-30T23:24:00.514Z,22.47
2019-03-30T23:26:29.294Z,23.77
2019-03-30T23:29:05.292Z,24.10
2019-03-30T23:31:39.913Z,23.23
2019-03-30T23:34:08.849Z,23.33
2019-03-30T23:36:40.172Z,23.60
2019-03-30T23:39:09.417Z,26.30
2019-03-30T23:41:39.981Z,22.07
2019-03-30T23:44:08.561Z,21.43
2019-03-30T23:46:37.409Z,23.37
2019-03-30T23:49:06.107Z,21.90
2019-03-30T23:51:34.749Z,21.70
2019-03-30T23:54:07.655Z,24.77
2019-03-30T23:56:36.375Z,22.43
2019-03-30T23:59:05.094Z,24.67
